createdAt,value
2022-10-09T00:02:58.245Z,12.93
2022-10-09T00:06:00.547Z,8.30
2022-10-09T00:09:04.560Z,13.80
2022-10-09T00:12:06.396Z,15.68
2022-10-09T00:15:09.159Z,12.20
2022-10-09T00:18:13.771Z,10.45
2022-10-09T00:21:18.668Z,13.27
2022-10-09T00:24:20.406Z,13.60
2022-10-09T00:27:25.539Z,10.30
2022-10-09T00:30:27.612Z,8.52
2022-10-09T00:33:29.551Z,9.85
2022-10-09T00:36:31.649Z,11.15
2022-10-09T00:39:34.040Z,11.07
2022-10-09T00:42:35.860Z,9.43
2022-10-09T00:45:37.856Z,11.48
2022-10-09T00:48:41.305Z,12.00
2022-10-09T00:54:47.051Z,14.18
2022-10-09T00:57:56.621Z,13.18
2022-10-09T01:00:58.361Z,12.35
2022-10-09T01:04:00.280Z,12.48
2022-10-09T01:07:15.882Z,14.68
2022-10-09T01:10:26.397Z,13.80
2022-10-09T01:14:00.735Z,12.48
2022-10-09T01:17:24.871Z,11.85
2022-10-09T01:20:38.757Z,13.50
2022-10-09T01:23:54.644Z,13.07
2022-10-09T01:27:08.003Z,16.17
2022-10-09T01:30:12.301Z,10.00
2022-10-09T01:33:16.704Z,19.15
2022-10-09T01:36:20.943Z,14.73
2022-10-09T01:39:24.171Z,12.63
2022-10-09T01:42:27.837Z,15.50
2022-10-09T01:45:44.223Z,11.02
2022-10-09T01:48:51.083Z,10.30
2022-10-09T01:52:04.669Z,10.60
2022-10-09T01:58:26.871Z,14.77
2022-10-09T02:01:35.475Z,12.95
2022-10-09T02:04:40.714Z,15.90
2022-10-09T02:07:43.062Z,20.98
2022-10-09T02:10:48.229Z,17.83
2022-10-09T02:13:53.116Z,13.25
2022-10-09T02:17:05.018Z,13.77
2022-10-09T02:20:26.995Z,15.50
2022-10-09T02:23:29.884Z,14.40
2022-10-09T02:26:32.820Z,19.85
2022-10-09T02:29:35.218Z,12.57
2022-10-09T02:32:37.207Z,11.50
2022-10-09T02:35:39.562Z,9.13
2022-10-09T02:38:41.583Z,11.38
2022-10-09T02:41:43.353Z,11.80
2022-10-09T02:44:45.211Z,10.30
2022-10-09T02:47:47.258Z,11.68
2022-10-09T02:50:49.109Z,16.65
2022-10-09T02:53:54.844Z,9.80
2022-10-09T02:56:56.650Z,10.77
2022-10-09T02:59:58.360Z,8.77
2022-10-09T03:03:00.087Z,11.98
2022-10-09T03:06:28.773Z,10.82
2022-10-09T03:09:33.725Z,11.02
2022-10-09T03:12:35.692Z,12.55
2022-10-09T03:15:38.031Z,13.63
2022-10-09T03:18:40.519Z,12.25
2022-10-09T03:21:42.210Z,10.70
2022-10-09T03:24:43.887Z,10.93
2022-10-09T03:27:45.625Z,10.68
2022-10-09T03:30:47.382Z,10.48
2022-10-09T03:33:49.581Z,12.38
2022-10-09T03:36:51.367Z,9.23
2022-10-09T03:39:53.055Z,11.50
2022-10-09T03:42:55.008Z,10.52
2022-10-09T03:46:00.921Z,12.82
2022-10-09T03:49:02.967Z,12.18
2022-10-09T03:52:05.108Z,14.13
2022-10-09T03:55:07.464Z,8.90
2022-10-09T03:58:09.957Z,12.98
2022-10-09T04:01:11.900Z,14.67
2022-10-09T04:04:14.223Z,12.40
2022-10-09T04:07:15.915Z,12.55
2022-10-09T04:10:17.779Z,10.07
2022-10-09T04:13:19.443Z,12.63
2022-10-09T04:16:21.456Z,11.48
2022-10-09T04:19:23.439Z,12.52
2022-10-09T04:22:25.452Z,12.43
2022-10-09T04:25:27.518Z,12.98
2022-10-09T04:28:30.791Z,10.13
2022-10-09T04:34:35.168Z,8.90
2022-10-09T04:37:37.197Z,10.98
2022-10-09T04:40:39.286Z,17.50
2022-10-09T04:43:40.970Z,13.98
2022-10-09T04:46:42.822Z,14.85
2022-10-09T04:49:44.724Z,11.88
2022-10-09T04:52:46.630Z,13.05
2022-10-09T04:55:49.626Z,13.93
2022-10-09T04:58:51.726Z,11.60
2022-10-09T05:01:53.412Z,8.52
2022-10-09T05:04:56.257Z,11.27
2022-10-09T05:07:57.898Z,12.30
2022-10-09T05:11:03.716Z,12.88
2022-10-09T05:14:05.376Z,11.23
2022-10-09T05:17:15.137Z,15.52
2022-10-09T05:20:17.544Z,12.40
2022-10-09T05:23:19.263Z,12.55
2022-10-09T05:26:22.836Z,12.70
2022-10-09T05:29:24.528Z,10.18
2022-10-09T05:32:26.622Z,11.50
2022-10-09T05:35:28.280Z,13.32
2022-10-09T05:38:30.613Z,12.20
2022-10-09T05:41:32.611Z,10.23
2022-10-09T05:44:34.485Z,16.98
2022-10-09T05:47:36.153Z,10.10
2022-10-09T05:50:38.237Z,11.38
2022-10-09T05:53:41.187Z,12.32
2022-10-09T05:56:44.409Z,13.15
2022-10-09T05:59:46.404Z,17.15
2022-10-09T06:02:48.655Z,14.07
2022-10-09T06:05:51.430Z,15.88
2022-10-09T06:08:54.035Z,15.80
2022-10-09T06:11:56.096Z,10.50
2022-10-09T06:14:57.788Z,15.30
2022-10-09T06:17:59.512Z,10.57
2022-10-09T06:21:02.976Z,8.48
2022-10-09T06:27:07.007Z,13.93
2022-10-09T06:30:09.364Z,10.00
2022-10-09T06:33:11.033Z,10.55
2022-10-09T06:36:16.398Z,10.25
2022-10-09T06:39:18.652Z,10.70
2022-10-09T06:42:20.541Z,11.68
2022-10-09T06:45:22.361Z,20.95
2022-10-09T06:51:37.192Z,54.17
2022-10-09T06:54:38.939Z,80.30
2022-10-09T06:57:40.685Z,81.57
2022-10-09T07:00:42.364Z,65.32
2022-10-09T07:03:46.381Z,56.50
2022-10-09T07:06:48.185Z,85.15
2022-10-09T07:09:50.214Z,97.25
2022-10-09T07:12:52.104Z,68.72
2022-10-09T07:15:53.862Z,31.98
2022-10-09T07:18:56.031Z,25.90
2022-10-09T07:21:58.077Z,29.38
2022-10-09T07:25:00.031Z,38.38
2022-10-09T07:28:01.703Z,37.88
2022-10-09T07:31:05.207Z,34.67
2022-10-09T07:34:07.517Z,25.90
2022-10-09T07:37:09.217Z,23.60
2022-10-09T07:40:11.003Z,27.02
2022-10-09T07:43:12.984Z,28.02
2022-10-09T07:46:17.601Z,47.95
2022-10-09T07:49:19.603Z,52.65
2022-10-09T07:52:22.554Z,32.58
2022-10-09T07:55:24.545Z,19.27
2022-10-09T07:58:26.307Z,17.85
2022-10-09T08:01:29.758Z,11.48
2022-10-09T08:04:31.802Z,17.38
2022-10-09T08:07:35.024Z,13.10
2022-10-09T08:13:39.514Z,9.55
2022-10-09T08:16:41.516Z,14.03
2022-10-09T08:19:43.199Z,9.50
2022-10-09T08:22:44.919Z,5.88
2022-10-09T08:25:47.553Z,10.68
2022-10-09T08:28:54.811Z,5.77
2022-10-09T08:31:56.726Z,7.22
2022-10-09T08:34:58.689Z,9.23
2022-10-09T08:38:00.369Z,8.75
2022-10-09T08:41:19.935Z,9.00
2022-10-09T08:44:41.829Z,8.43
2022-10-09T08:47:50.562Z,12.52
2022-10-09T08:50:55.265Z,6.72
2022-10-09T08:54:13.256Z,7.03
2022-10-09T08:57:17.525Z,10.57
2022-10-09T09:00:24.732Z,8.23
2022-10-09T09:03:32.434Z,7.65
2022-10-09T09:06:43.047Z,8.82
2022-10-09T09:10:08.930Z,10.90
2022-10-09T09:13:46.469Z,9.55
2022-10-09T09:16:58.688Z,6.80
2022-10-09T09:20:39.302Z,7.32
2022-10-09T09:23:44.733Z,7.32
2022-10-09T09:26:55.670Z,7.10
2022-10-09T09:30:10.087Z,9.38
2022-10-09T09:33:11.898Z,10.32
2022-10-09T09:36:20.466Z,7.65
2022-10-09T09:42:49.323Z,6.75
2022-10-09T09:45:56.238Z,7.95
2022-10-09T09:48:58.257Z,6.25
2022-10-09T09:52:01.962Z,9.40
2022-10-09T09:55:05.007Z,9.45
2022-10-09T09:58:13.923Z,6.25
2022-10-09T10:01:27.577Z,5.57
2022-10-09T10:07:37.125Z,7.47
2022-10-09T10:10:45.811Z,7.50
2022-10-09T10:13:49.413Z,6.15
2022-10-09T10:16:53.687Z,6.50
2022-10-09T10:19:55.719Z,7.43
2022-10-09T10:22:59.541Z,3.50
2022-10-09T10:26:15.952Z,6.55
2022-10-09T10:29:22.715Z,6.72
2022-10-09T10:32:35.353Z,9.95
2022-10-09T10:35:41.298Z,8.13
2022-10-09T10:38:55.320Z,4.20
2022-10-09T10:42:00.196Z,6.07
2022-10-09T10:45:09.972Z,6.22
2022-10-09T10:48:19.265Z,6.07
2022-10-09T10:51:41.961Z,6.18
2022-10-09T10:54:55.110Z,4.00
2022-10-09T10:58:08.762Z,6.97
2022-10-09T11:05:01.975Z,6.80
2022-10-09T11:08:25.967Z,6.68
2022-10-09T11:11:33.861Z,7.22
2022-10-09T11:15:23.821Z,4.20
2022-10-09T11:19:02.917Z,5.53
2022-10-09T11:22:20.755Z,7.78
2022-10-09T11:25:28.409Z,5.75
2022-10-09T11:28:44.202Z,7.57
2022-10-09T11:32:05.625Z,7.38
2022-10-09T11:35:10.246Z,5.30
2022-10-09T11:38:38.327Z,7.15
2022-10-09T11:41:41.200Z,3.17
2022-10-09T11:45:01.934Z,2.90
2022-10-09T11:48:21.529Z,5.07
2022-10-09T11:51:29.342Z,5.25
2022-10-09T11:54:33.114Z,5.38
2022-10-09T11:57:35.531Z,6.57
2022-10-09T12:00:38.051Z,4.40
2022-10-09T12:03:40.576Z,6.87
2022-10-09T12:06:58.717Z,7.47
2022-10-09T12:10:09.245Z,3.53
2022-10-09T12:13:30.356Z,3.97
2022-10-09T12:16:32.294Z,4.68
2022-10-09T12:19:40.809Z,4.75
2022-10-09T12:23:01.433Z,4.10
2022-10-09T12:26:12.570Z,4.15
2022-10-09T12:29:44.582Z,5.72
2022-10-09T12:33:19.983Z,6.65
2022-10-09T12:36:30.527Z,5.63
2022-10-09T12:39:33.813Z,4.28
2022-10-09T12:42:35.756Z,8.30
2022-10-09T12:45:44.327Z,4.50
2022-10-09T12:48:46.547Z,3.88
2022-10-09T12:51:56.289Z,3.38
2022-10-09T12:54:59.099Z,3.63
2022-10-09T12:58:07.708Z,4.75
2022-10-09T13:01:14.624Z,5.75
2022-10-09T13:04:27.866Z,5.63
2022-10-09T13:07:32.592Z,4.97
2022-10-09T13:10:34.404Z,5.82
2022-10-09T13:13:36.578Z,4.30
2022-10-09T13:16:43.783Z,4.30
2022-10-09T13:19:53.047Z,5.75
2022-10-09T13:23:04.361Z,5.63
2022-10-09T13:26:06.378Z,6.05
2022-10-09T13:29:08.786Z,6.38
2022-10-09T13:32:14.901Z,6.78
2022-10-09T13:35:17.468Z,5.30
2022-10-09T13:38:20.290Z,2.63
2022-10-09T13:41:24.865Z,5.03
2022-10-09T13:44:26.859Z,4.80
2022-10-09T13:47:29.858Z,4.13
2022-10-09T13:50:32.370Z,5.65
2022-10-09T13:53:34.936Z,5.77
2022-10-09T13:56:37.277Z,3.17
2022-10-09T13:59:39.045Z,5.15
2022-10-09T14:02:40.842Z,5.30
2022-10-09T14:05:44.006Z,5.35
2022-10-09T14:08:45.814Z,4.32
2022-10-09T14:11:47.834Z,4.57
2022-10-09T14:14:49.538Z,4.70
2022-10-09T14:17:51.861Z,5.30
2022-10-09T14:20:53.749Z,7.18
2022-10-09T14:23:58.528Z,3.30
2022-10-09T14:27:00.332Z,4.80
2022-10-09T14:30:02.111Z,2.47
2022-10-09T14:33:03.943Z,5.18
2022-10-09T14:36:11.987Z,4.00
2022-10-09T14:39:14.019Z,3.60
2022-10-09T14:42:15.707Z,2.72
2022-10-09T14:45:19.885Z,3.17
2022-10-09T14:48:21.865Z,3.65
2022-10-09T14:51:26.743Z,1.33
2022-10-09T14:54:28.568Z,2.85
2022-10-09T14:57:34.467Z,4.60
2022-10-09T15:00:37.481Z,3.90
2022-10-09T15:03:39.687Z,2.78
2022-10-09T15:06:41.483Z,3.30
2022-10-09T15:09:43.179Z,3.72
2022-10-09T15:12:45.094Z,3.30
2022-10-09T15:15:46.919Z,3.28
2022-10-09T15:18:50.377Z,3.33
2022-10-09T15:24:53.839Z,3.97
2022-10-09T15:27:55.905Z,1.45
2022-10-09T15:31:01.690Z,3.42
2022-10-09T15:34:04.730Z,1.98
2022-10-09T15:37:06.889Z,3.30
2022-10-09T15:40:09.164Z,2.90
2022-10-09T15:43:12.716Z,3.15
2022-10-09T15:46:14.813Z,3.08
2022-10-09T15:49:16.889Z,5.55
2022-10-09T15:52:19.010Z,3.00
2022-10-09T15:55:20.743Z,2.20
2022-10-09T15:58:22.682Z,1.80
2022-10-09T16:01:25.152Z,4.95
2022-10-09T16:04:28.221Z,2.77
2022-10-09T16:07:30.123Z,1.67
2022-10-09T16:10:33.098Z,2.20
2022-10-09T16:13:40.878Z,3.15
2022-10-09T16:16:42.647Z,5.90
2022-10-09T16:19:44.539Z,4.00
2022-10-09T16:22:46.777Z,3.88
2022-10-09T16:26:01.103Z,2.17
2022-10-09T16:29:03.238Z,3.67
2022-10-09T16:32:05.219Z,4.18
2022-10-09T16:35:07.421Z,4.15
2022-10-09T16:38:09.175Z,4.82
2022-10-09T16:41:15.190Z,4.35
2022-10-09T16:44:17.207Z,3.40
2022-10-09T16:47:18.903Z,2.50
2022-10-09T16:50:20.602Z,3.17
2022-10-09T16:53:22.305Z,2.10
2022-10-09T16:56:28.065Z,2.15
2022-10-09T16:59:30.058Z,2.35
2022-10-09T17:02:32.149Z,3.85
2022-10-09T17:05:39.135Z,3.58
2022-10-09T17:08:40.898Z,2.90
2022-10-09T17:11:43.289Z,4.35
2022-10-09T17:14:46.344Z,2.55
2022-10-09T17:17:48.582Z,2.92
2022-10-09T17:20:50.548Z,4.65
2022-10-09T17:23:57.061Z,3.60
2022-10-09T17:26:59.318Z,3.35
2022-10-09T17:30:01.055Z,3.78
2022-10-09T17:33:03.508Z,2.95
2022-10-09T17:36:05.562Z,3.47
2022-10-09T17:39:12.057Z,5.30
2022-10-09T17:42:14.554Z,5.78
2022-10-09T17:45:16.593Z,4.97
2022-10-09T17:48:18.427Z,4.32
2022-10-09T17:51:26.401Z,4.95
2022-10-09T17:54:28.073Z,7.90
2022-10-09T17:57:29.777Z,7.50
2022-10-09T18:00:31.512Z,9.23
2022-10-09T18:03:33.577Z,5.10
2022-10-09T18:06:35.860Z,3.88
2022-10-09T18:09:38.430Z,6.97
2022-10-09T18:12:40.418Z,6.93
2022-10-09T18:15:43.828Z,2.35
2022-10-09T18:21:49.770Z,4.95
2022-10-09T18:24:51.945Z,3.15
2022-10-09T18:27:53.960Z,13.25
2022-10-09T18:30:56.297Z,5.10
2022-10-09T18:33:59.813Z,6.28
2022-10-09T18:37:01.682Z,4.30
2022-10-09T18:40:03.907Z,8.52
2022-10-09T18:43:06.661Z,4.07
2022-10-09T18:46:08.932Z,4.43
2022-10-09T18:49:13.688Z,6.72
2022-10-09T18:52:17.120Z,6.80
2022-10-09T18:58:22.073Z,5.75
2022-10-09T19:01:23.866Z,6.38
2022-10-09T19:04:25.681Z,5.15
2022-10-09T19:07:27.450Z,10.20
2022-10-09T19:10:29.422Z,7.13
2022-10-09T19:13:31.411Z,5.88
2022-10-09T19:16:34.300Z,6.90
2022-10-09T19:19:37.423Z,10.15
2022-10-09T19:22:40.390Z,8.32
2022-10-09T19:25:50.466Z,10.82
2022-10-09T19:28:52.392Z,5.38
2022-10-09T19:31:55.235Z,6.90
2022-10-09T19:35:00.079Z,4.95
2022-10-09T19:38:03.244Z,6.72
2022-10-09T19:41:11.604Z,8.52
2022-10-09T19:44:13.368Z,5.75
2022-10-09T19:47:16.096Z,6.10
2022-10-09T19:50:18.654Z,4.35
2022-10-09T19:53:21.117Z,6.27
2022-10-09T19:56:26.391Z,7.45
2022-10-09T19:59:28.684Z,6.28
2022-10-09T20:02:30.509Z,6.47
2022-10-09T20:05:33.317Z,4.28
2022-10-09T20:08:39.449Z,9.05
2022-10-09T20:11:42.562Z,7.25
2022-10-09T20:14:44.676Z,4.65
2022-10-09T20:17:46.560Z,7.97
2022-10-09T20:20:49.187Z,3.88
2022-10-09T20:23:51.563Z,4.57
2022-10-09T20:26:54.024Z,6.03
2022-10-09T20:29:55.919Z,5.00
2022-10-09T20:32:59.470Z,6.25
2022-10-09T20:36:02.016Z,5.53
2022-10-09T20:39:10.678Z,7.13
2022-10-09T20:42:12.417Z,7.95
2022-10-09T20:45:14.419Z,6.15
2022-10-09T20:48:16.230Z,5.13
2022-10-09T20:51:19.351Z,5.20
2022-10-09T20:54:21.885Z,5.18
2022-10-09T20:57:23.891Z,6.00
2022-10-09T21:00:26.023Z,6.35
2022-10-09T21:03:28.120Z,5.68
2022-10-09T21:06:30.258Z,6.60
2022-10-09T21:09:33.439Z,4.25
2022-10-09T21:12:35.317Z,5.63
2022-10-09T21:15:49.550Z,5.43
2022-10-09T21:19:00.087Z,6.18
2022-10-09T21:22:01.813Z,5.65
2022-10-09T21:25:03.714Z,4.82
2022-10-09T21:28:06.140Z,5.97
2022-10-09T21:31:10.333Z,3.97
2022-10-09T21:34:12.125Z,4.93
2022-10-09T21:37:21.305Z,7.63
2022-10-09T21:40:24.017Z,7.75
2022-10-09T21:43:25.813Z,5.93
2022-10-09T21:46:27.871Z,6.72
2022-10-09T21:49:29.753Z,7.22
2022-10-09T21:52:31.913Z,7.32
2022-10-09T21:55:34.570Z,22.38
2022-10-09T21:58:40.580Z,15.17
2022-10-09T22:01:42.464Z,22.55
2022-10-09T22:04:44.199Z,16.05
2022-10-09T22:07:45.919Z,11.82
2022-10-09T22:10:49.636Z,11.15
2022-10-09T22:13:51.416Z,11.98
2022-10-09T22:16:53.310Z,10.70
2022-10-09T22:19:55.291Z,13.68
2022-10-09T22:22:56.979Z,11.93
2022-10-09T22:26:01.141Z,16.52
2022-10-09T22:29:02.820Z,10.20
2022-10-09T22:32:05.363Z,9.57
2022-10-09T22:35:07.363Z,8.63
2022-10-09T22:38:09.040Z,10.50
2022-10-09T22:41:21.363Z,7.45
2022-10-09T22:44:23.124Z,7.32
2022-10-09T22:47:25.140Z,8.27
2022-10-09T22:50:26.889Z,8.95
2022-10-09T22:53:28.694Z,6.78
2022-10-09T22:56:38.308Z,8.32
2022-10-09T22:59:40.357Z,7.35
2022-10-09T23:02:42.340Z,6.93
2022-10-09T23:05:43.991Z,9.77
2022-10-09T23:08:47.944Z,10.35
2022-10-09T23:11:49.752Z,10.98
2022-10-09T23:14:53.940Z,7.50
2022-10-09T23:17:58.115Z,11.73
2022-10-09T23:21:03.671Z,10.38
2022-10-09T23:24:06.709Z,9.98
2022-10-09T23:27:08.557Z,8.23
2022-10-09T23:30:10.741Z,7.43
2022-10-09T23:33:12.429Z,13.43
2022-10-09T23:36:17.337Z,8.77
2022-10-09T23:39:19.274Z,8.93
2022-10-09T23:42:20.982Z,7.82
2022-10-09T23:45:23.011Z,8.40
2022-10-09T23:48:25.489Z,8.00
2022-10-09T23:51:27.638Z,11.33
2022-10-09T23:54:29.348Z,6.10
2022-10-09T23:57:32.842Z,6.97
